sensor_id;sensor_type;location;lat;lon;timestamp;P1;durP1;ratioP1;P2;durP2;ratioP2
2035;SDS011;23642;42.658;23.350;2022-08-21T00:00:32;49.30;;;45.33;;
2035;SDS011;23642;42.658;23.350;2022-08-21T00:03:00;50.57;;;46.57;;
2035;SDS011;23642;42.658;23.350;2022-08-21T00:05:32;48.83;;;44.97;;
2035;SDS011;23642;42.658;23.350;2022-08-21T00:08:03;48.30;;;44.67;;
2035;SDS011;23642;42.658;23.350;2022-08-21T00:10:30;49.67;;;45.97;;
2035;SDS011;23642;42.658;23.350;2022-08-21T00:12:59;48.30;;;44.20;;
2035;SDS011;23642;42.658;23.350;2022-08-21T00:15:28;47.60;;;44.10;;
2035;SDS011;23642;42.658;23.350;2022-08-21T00:17:56;49.40;;;45.50;;
2035;SDS011;23642;42.658;23.350;2022-08-21T00:20:24;47.30;;;43.30;;
2035;SDS011;23642;42.658;23.350;2022-08-21T00:22:52;50.17;;;46.03;;
2035;SDS011;23642;42.658;23.350;2022-08-21T00:25:19;49.30;;;45.50;;
2035;SDS011;23642;42.658;23.350;2022-08-21T00:27:47;47.60;;;43.83;;
2035;SDS011;23642;42.658;23.350;2022-08-21T00:30:16;46.77;;;43.57;;
2035;SDS011;23642;42.658;23.350;2022-08-21T00:32:45;47.50;;;44.17;;
2035;SDS011;23642;42.658;23.350;2022-08-21T00:35:13;48.03;;;44.33;;
2035;SDS011;23642;42.658;23.350;2022-08-21T00:37:42;45.77;;;42.30;;
2035;SDS011;23642;42.658;23.350;2022-08-21T00:40:11;47.10;;;44.00;;
2035;SDS011;23642;42.658;23.350;2022-08-21T00:42:42;49.03;;;45.50;;
2035;SDS011;23642;42.658;23.350;2022-08-21T00:45:10;49.47;;;46.00;;
2035;SDS011;23642;42.658;23.350;2022-08-21T00:47:39;50.67;;;46.77;;
2035;SDS011;23642;42.658;23.350;2022-08-21T00:50:08;52.90;;;49.00;;
2035;SDS011;23642;42.658;23.350;2022-08-21T00:52:36;56.40;;;51.83;;
2035;SDS011;23642;42.658;23.350;2022-08-21T00:55:04;54.13;;;49.90;;
2035;SDS011;23642;42.658;23.350;2022-08-21T00:57:36;52.63;;;48.53;;
2035;SDS011;23642;42.658;23.350;2022-08-21T01:00:06;51.93;;;47.73;;
2035;SDS011;23642;42.658;23.350;2022-08-21T01:02:35;53.07;;;48.80;;
2035;SDS011;23642;42.658;23.350;2022-08-21T01:05:04;51.53;;;47.47;;
2035;SDS011;23642;42.658;23.350;2022-08-21T01:07:35;51.57;;;47.43;;
2035;SDS011;23642;42.658;23.350;2022-08-21T01:10:02;52.17;;;48.17;;
2035;SDS011;23642;42.658;23.350;2022-08-21T01:12:29;54.87;;;50.10;;
2035;SDS011;23642;42.658;23.350;2022-08-21T01:14:56;53.40;;;48.90;;
2035;SDS011;23642;42.658;23.350;2022-08-21T01:17:23;57.47;;;52.47;;
2035;SDS011;23642;42.658;23.350;2022-08-21T01:19:53;58.60;;;52.90;;
2035;SDS011;23642;42.658;23.350;2022-08-21T01:22:25;56.27;;;51.43;;
2035;SDS011;23642;42.658;23.350;2022-08-21T01:24:52;57.70;;;52.37;;
2035;SDS011;23642;42.658;23.350;2022-08-21T01:27:19;57.23;;;52.13;;
2035;SDS011;23642;42.658;23.350;2022-08-21T01:29:48;57.17;;;51.97;;
2035;SDS011;23642;42.658;23.350;2022-08-21T01:32:23;54.87;;;49.87;;
2035;SDS011;23642;42.658;23.350;2022-08-21T01:34:51;56.33;;;51.53;;
2035;SDS011;23642;42.658;23.350;2022-08-21T01:37:18;53.60;;;48.70;;
2035;SDS011;23642;42.658;23.350;2022-08-21T01:39:48;53.97;;;49.47;;
2035;SDS011;23642;42.658;23.350;2022-08-21T01:42:17;54.87;;;49.93;;
2035;SDS011;23642;42.658;23.350;2022-08-21T01:44:44;52.07;;;47.53;;
2035;SDS011;23642;42.658;23.350;2022-08-21T01:47:12;51.87;;;47.67;;
2035;SDS011;23642;42.658;23.350;2022-08-21T01:49:42;52.33;;;48.13;;
2035;SDS011;23642;42.658;23.350;2022-08-21T01:52:10;52.63;;;48.10;;
2035;SDS011;23642;42.658;23.350;2022-08-21T01:54:38;50.37;;;46.60;;
2035;SDS011;23642;42.658;23.350;2022-08-21T01:57:07;49.97;;;46.43;;
2035;SDS011;23642;42.658;23.350;2022-08-21T01:59:35;49.43;;;45.70;;
2035;SDS011;23642;42.658;23.350;2022-08-21T02:02:02;51.37;;;47.30;;
2035;SDS011;23642;42.658;23.350;2022-08-21T02:04:29;52.23;;;48.30;;
2035;SDS011;23642;42.658;23.350;2022-08-21T02:06:56;54.03;;;49.43;;
2035;SDS011;23642;42.658;23.350;2022-08-21T02:09:23;52.07;;;47.60;;
2035;SDS011;23642;42.658;23.350;2022-08-21T02:11:51;51.30;;;47.40;;
2035;SDS011;23642;42.658;23.350;2022-08-21T02:14:21;53.20;;;48.60;;
2035;SDS011;23642;42.658;23.350;2022-08-21T02:16:47;51.57;;;47.53;;
2035;SDS011;23642;42.658;23.350;2022-08-21T02:19:15;53.07;;;48.77;;
2035;SDS011;23642;42.658;23.350;2022-08-21T02:21:42;52.83;;;48.53;;
2035;SDS011;23642;42.658;23.350;2022-08-21T02:24:10;53.07;;;48.00;;
2035;SDS011;23642;42.658;23.350;2022-08-21T02:26:37;52.50;;;48.00;;
2035;SDS011;23642;42.658;23.350;2022-08-21T02:29:04;51.90;;;47.40;;
2035;SDS011;23642;42.658;23.350;2022-08-21T02:31:33;53.23;;;48.43;;
2035;SDS011;23642;42.658;23.350;2022-08-21T02:34:00;51.47;;;46.70;;
2035;SDS011;23642;42.658;23.350;2022-08-21T02:36:27;52.20;;;47.80;;
2035;SDS011;23642;42.658;23.350;2022-08-21T02:38:54;49.97;;;45.60;;
2035;SDS011;23642;42.658;23.350;2022-08-21T02:41:21;53.67;;;48.83;;
2035;SDS011;23642;42.658;23.350;2022-08-21T02:43:49;52.00;;;47.87;;
2035;SDS011;23642;42.658;23.350;2022-08-21T02:46:18;51.63;;;47.57;;
2035;SDS011;23642;42.658;23.350;2022-08-21T02:48:47;51.20;;;46.63;;
2035;SDS011;23642;42.658;23.350;2022-08-21T02:51:15;49.70;;;45.50;;
2035;SDS011;23642;42.658;23.350;2022-08-21T02:53:44;49.47;;;45.77;;
2035;SDS011;23642;42.658;23.350;2022-08-21T02:56:12;49.50;;;45.70;;
2035;SDS011;23642;42.658;23.350;2022-08-21T02:58:42;49.53;;;45.43;;
2035;SDS011;23642;42.658;23.350;2022-08-21T03:01:12;49.37;;;45.00;;
2035;SDS011;23642;42.658;23.350;2022-08-21T03:03:41;47.50;;;44.10;;
2035;SDS011;23642;42.658;23.350;2022-08-21T03:06:12;49.40;;;45.50;;
2035;SDS011;23642;42.658;23.350;2022-08-21T03:08:40;50.20;;;46.10;;
2035;SDS011;23642;42.658;23.350;2022-08-21T03:11:10;48.27;;;44.47;;
2035;SDS011;23642;42.658;23.350;2022-08-21T03:13:38;45.80;;;42.20;;
2035;SDS011;23642;42.658;23.350;2022-08-21T03:16:05;47.60;;;43.57;;
2035;SDS011;23642;42.658;23.350;2022-08-21T03:18:32;45.70;;;42.40;;
2035;SDS011;23642;42.658;23.350;2022-08-21T03:21:00;47.07;;;43.67;;
2035;SDS011;23642;42.658;23.350;2022-08-21T03:23:29;46.47;;;42.97;;
2035;SDS011;23642;42.658;23.350;2022-08-21T03:25:56;45.63;;;42.20;;
2035;SDS011;23642;42.658;23.350;2022-08-21T03:28:23;44.00;;;41.10;;
2035;SDS011;23642;42.658;23.350;2022-08-21T03:30:50;43.07;;;40.07;;
2035;SDS011;23642;42.658;23.350;2022-08-21T03:33:19;42.40;;;39.30;;
2035;SDS011;23642;42.658;23.350;2022-08-21T03:35:47;42.03;;;39.27;;
2035;SDS011;23642;42.658;23.350;2022-08-21T03:38:21;43.73;;;40.73;;
2035;SDS011;23642;42.658;23.350;2022-08-21T03:40:50;43.77;;;40.40;;
2035;SDS011;23642;42.658;23.350;2022-08-21T03:43:16;42.97;;;39.93;;
2035;SDS011;23642;42.658;23.350;2022-08-21T03:45:44;46.20;;;42.90;;
2035;SDS011;23642;42.658;23.350;2022-08-21T03:48:11;41.23;;;38.50;;
2035;SDS011;23642;42.658;23.350;2022-08-21T03:50:39;41.93;;;39.13;;
2035;SDS011;23642;42.658;23.350;2022-08-21T03:53:07;40.60;;;37.40;;
2035;SDS011;23642;42.658;23.350;2022-08-21T03:55:35;41.20;;;38.10;;
2035;SDS011;23642;42.658;23.350;2022-08-21T03:58:04;41.07;;;38.30;;
2035;SDS011;23642;42.658;23.350;2022-08-21T04:00:31;37.87;;;35.67;;
2035;SDS011;23642;42.658;23.350;2022-08-21T04:02:58;39.53;;;36.70;;
2035;SDS011;23642;42.658;23.350;2022-08-21T04:05:25;37.70;;;35.27;;
2035;SDS011;23642;42.658;23.350;2022-08-21T04:07:56;37.97;;;35.67;;
2035;SDS011;23642;42.658;23.350;2022-08-21T04:10:24;38.30;;;35.90;;
2035;SDS011;23642;42.658;23.350;2022-08-21T04:12:52;39.40;;;37.03;;
2035;SDS011;23642;42.658;23.350;2022-08-21T04:15:22;38.17;;;35.73;;
2035;SDS011;23642;42.658;23.350;2022-08-21T04:17:50;39.97;;;37.10;;
2035;SDS011;23642;42.658;23.350;2022-08-21T04:20:18;39.13;;;36.63;;
2035;SDS011;23642;42.658;23.350;2022-08-21T04:22:46;39.20;;;36.50;;
2035;SDS011;23642;42.658;23.350;2022-08-21T04:25:15;40.63;;;38.03;;
2035;SDS011;23642;42.658;23.350;2022-08-21T04:27:43;41.43;;;38.60;;
2035;SDS011;23642;42.658;23.350;2022-08-21T04:30:11;41.17;;;38.47;;
2035;SDS011;23642;42.658;23.350;2022-08-21T04:32:43;39.30;;;36.77;;
2035;SDS011;23642;42.658;23.350;2022-08-21T04:35:11;38.80;;;36.20;;
2035;SDS011;23642;42.658;23.350;2022-08-21T04:37:39;41.37;;;38.30;;
2035;SDS011;23642;42.658;23.350;2022-08-21T04:40:07;41.87;;;38.67;;
2035;SDS011;23642;42.658;23.350;2022-08-21T04:42:40;40.60;;;38.00;;
2035;SDS011;23642;42.658;23.350;2022-08-21T04:45:09;42.17;;;39.27;;
2035;SDS011;23642;42.658;23.350;2022-08-21T04:47:36;42.80;;;39.90;;
2035;SDS011;23642;42.658;23.350;2022-08-21T04:50:05;43.67;;;40.60;;
2035;SDS011;23642;42.658;23.350;2022-08-21T04:52:33;43.23;;;40.13;;
2035;SDS011;23642;42.658;23.350;2022-08-21T04:55:00;44.37;;;41.37;;
2035;SDS011;23642;42.658;23.350;2022-08-21T04:57:27;43.20;;;40.40;;
2035;SDS011;23642;42.658;23.350;2022-08-21T04:59:54;45.57;;;42.43;;
2035;SDS011;23642;42.658;23.350;2022-08-21T05:02:23;43.50;;;40.50;;
2035;SDS011;23642;42.658;23.350;2022-08-21T05:04:51;41.90;;;39.10;;
2035;SDS011;23642;42.658;23.350;2022-08-21T05:07:23;42.63;;;40.00;;
2035;SDS011;23642;42.658;23.350;2022-08-21T05:09:53;44.53;;;41.40;;
2035;SDS011;23642;42.658;23.350;2022-08-21T05:12:20;44.10;;;40.77;;
2035;SDS011;23642;42.658;23.350;2022-08-21T05:14:51;43.60;;;40.67;;
2035;SDS011;23642;42.658;23.350;2022-08-21T05:17:18;42.90;;;40.30;;
2035;SDS011;23642;42.658;23.350;2022-08-21T05:19:45;47.30;;;44.10;;
2035;SDS011;23642;42.658;23.350;2022-08-21T05:22:18;45.80;;;43.00;;
2035;SDS011;23642;42.658;23.350;2022-08-21T05:24:48;50.13;;;46.83;;
2035;SDS011;23642;42.658;23.350;2022-08-21T05:27:15;50.90;;;47.47;;
2035;SDS011;23642;42.658;23.350;2022-08-21T05:29:42;51.37;;;48.17;;
2035;SDS011;23642;42.658;23.350;2022-08-21T05:32:09;51.97;;;48.67;;
2035;SDS011;23642;42.658;23.350;2022-08-21T05:34:37;51.30;;;48.20;;
2035;SDS011;23642;42.658;23.350;2022-08-21T05:37:11;53.10;;;49.70;;
2035;SDS011;23642;42.658;23.350;2022-08-21T05:39:38;57.40;;;53.70;;
2035;SDS011;23642;42.658;23.350;2022-08-21T05:42:06;59.50;;;55.60;;
2035;SDS011;23642;42.658;23.350;2022-08-21T05:44:34;60.53;;;56.53;;
2035;SDS011;23642;42.658;23.350;2022-08-21T05:47:02;62.00;;;57.60;;
2035;SDS011;23642;42.658;23.350;2022-08-21T05:49:30;66.47;;;62.07;;
2035;SDS011;23642;42.658;23.350;2022-08-21T05:51:58;67.00;;;62.47;;
2035;SDS011;23642;42.658;23.350;2022-08-21T05:54:25;69.80;;;64.90;;
2035;SDS011;23642;42.658;23.350;2022-08-21T05:56:52;67.30;;;63.00;;
2035;SDS011;23642;42.658;23.350;2022-08-21T05:59:22;68.93;;;64.33;;
2035;SDS011;23642;42.658;23.350;2022-08-21T06:01:49;70.80;;;66.03;;
2035;SDS011;23642;42.658;23.350;2022-08-21T06:04:17;70.30;;;65.40;;
2035;SDS011;23642;42.658;23.350;2022-08-21T06:06:45;70.60;;;65.80;;
2035;SDS011;23642;42.658;23.350;2022-08-21T06:09:12;71.50;;;66.20;;
2035;SDS011;23642;42.658;23.350;2022-08-21T06:11:40;73.97;;;68.87;;
2035;SDS011;23642;42.658;23.350;2022-08-21T06:14:07;73.83;;;68.53;;
2035;SDS011;23642;42.658;23.350;2022-08-21T06:16:35;76.93;;;71.73;;
2035;SDS011;23642;42.658;23.350;2022-08-21T06:19:02;77.47;;;72.07;;
2035;SDS011;23642;42.658;23.350;2022-08-21T06:21:29;77.60;;;71.97;;
2035;SDS011;23642;42.658;23.350;2022-08-21T06:23:57;79.17;;;73.57;;
2035;SDS011;23642;42.658;23.350;2022-08-21T06:26:24;79.07;;;73.33;;
2035;SDS011;23642;42.658;23.350;2022-08-21T06:28:51;76.90;;;71.53;;
2035;SDS011;23642;42.658;23.350;2022-08-21T06:31:19;79.53;;;74.13;;
2035;SDS011;23642;42.658;23.350;2022-08-21T06:33:50;78.53;;;73.37;;
2035;SDS011;23642;42.658;23.350;2022-08-21T06:36:17;81.83;;;76.13;;
2035;SDS011;23642;42.658;23.350;2022-08-21T06:38:46;77.77;;;72.33;;
2035;SDS011;23642;42.658;23.350;2022-08-21T06:41:13;80.73;;;74.93;;
2035;SDS011;23642;42.658;23.350;2022-08-21T06:43:41;80.77;;;75.00;;
2035;SDS011;23642;42.658;23.350;2022-08-21T06:46:08;79.30;;;73.90;;
2035;SDS011;23642;42.658;23.350;2022-08-21T06:48:35;80.00;;;74.30;;
2035;SDS011;23642;42.658;23.350;2022-08-21T06:51:04;78.77;;;73.57;;
2035;SDS011;23642;42.658;23.350;2022-08-21T06:53:31;81.67;;;76.10;;
2035;SDS011;23642;42.658;23.350;2022-08-21T06:55:58;82.10;;;76.27;;
2035;SDS011;23642;42.658;23.350;2022-08-21T06:58:25;81.57;;;76.20;;
2035;SDS011;23642;42.658;23.350;2022-08-21T07:00:56;82.17;;;75.90;;
2035;SDS011;23642;42.658;23.350;2022-08-21T07:03:26;81.20;;;75.50;;
2035;SDS011;23642;42.658;23.350;2022-08-21T07:05:55;80.03;;;74.57;;
2035;SDS011;23642;42.658;23.350;2022-08-21T07:08:24;80.50;;;74.70;;
2035;SDS011;23642;42.658;23.350;2022-08-21T07:10:52;81.27;;;75.70;;
2035;SDS011;23642;42.658;23.350;2022-08-21T07:13:21;85.97;;;79.53;;
2035;SDS011;23642;42.658;23.350;2022-08-21T07:15:48;82.93;;;77.03;;
2035;SDS011;23642;42.658;23.350;2022-08-21T07:18:19;81.87;;;75.80;;
2035;SDS011;23642;42.658;23.350;2022-08-21T07:20:46;83.03;;;77.17;;
2035;SDS011;23642;42.658;23.350;2022-08-21T07:23:16;80.33;;;74.73;;
2035;SDS011;23642;42.658;23.350;2022-08-21T07:25:55;83.30;;;77.70;;
2035;SDS011;23642;42.658;23.350;2022-08-21T07:28:24;82.37;;;76.70;;
2035;SDS011;23642;42.658;23.350;2022-08-21T07:30:52;82.57;;;76.77;;
2035;SDS011;23642;42.658;23.350;2022-08-21T07:33:21;82.70;;;76.97;;
2035;SDS011;23642;42.658;23.350;2022-08-21T07:35:48;83.67;;;77.97;;
2035;SDS011;23642;42.658;23.350;2022-08-21T07:38:16;84.47;;;78.90;;
2035;SDS011;23642;42.658;23.350;2022-08-21T07:40:43;85.17;;;79.57;;
2035;SDS011;23642;42.658;23.350;2022-08-21T07:43:12;82.20;;;76.70;;
2035;SDS011;23642;42.658;23.350;2022-08-21T07:45:41;85.40;;;79.73;;
2035;SDS011;23642;42.658;23.350;2022-08-21T07:48:09;85.90;;;80.30;;
2035;SDS011;23642;42.658;23.350;2022-08-21T07:50:36;87.70;;;81.73;;
2035;SDS011;23642;42.658;23.350;2022-08-21T07:53:05;85.10;;;79.50;;
2035;SDS011;23642;42.658;23.350;2022-08-21T07:55:33;86.87;;;80.83;;
2035;SDS011;23642;42.658;23.350;2022-08-21T07:58:00;86.47;;;80.60;;
2035;SDS011;23642;42.658;23.350;2022-08-21T08:00:29;88.47;;;82.43;;
2035;SDS011;23642;42.658;23.350;2022-08-21T08:02:56;89.87;;;83.67;;
2035;SDS011;23642;42.658;23.350;2022-08-21T08:05:25;88.97;;;83.07;;
2035;SDS011;23642;42.658;23.350;2022-08-21T08:07:54;86.17;;;80.27;;
2035;SDS011;23642;42.658;23.350;2022-08-21T08:10:22;89.80;;;83.47;;
2035;SDS011;23642;42.658;23.350;2022-08-21T08:12:50;89.27;;;83.37;;
2035;SDS011;23642;42.658;23.350;2022-08-21T08:15:20;89.57;;;83.60;;
2035;SDS011;23642;42.658;23.350;2022-08-21T08:17:51;92.63;;;86.07;;
2035;SDS011;23642;42.658;23.350;2022-08-21T08:20:19;90.83;;;84.53;;
2035;SDS011;23642;42.658;23.350;2022-08-21T08:22:48;92.00;;;85.83;;
2035;SDS011;23642;42.658;23.350;2022-08-21T08:25:16;89.70;;;83.80;;
2035;SDS011;23642;42.658;23.350;2022-08-21T08:27:45;89.13;;;83.23;;
2035;SDS011;23642;42.658;23.350;2022-08-21T08:30:13;87.60;;;81.60;;
2035;SDS011;23642;42.658;23.350;2022-08-21T08:32:42;91.30;;;85.20;;
2035;SDS011;23642;42.658;23.350;2022-08-21T08:35:11;91.40;;;85.10;;
2035;SDS011;23642;42.658;23.350;2022-08-21T08:37:38;93.03;;;86.30;;
2035;SDS011;23642;42.658;23.350;2022-08-21T08:40:07;93.40;;;86.87;;
2035;SDS011;23642;42.658;23.350;2022-08-21T08:42:36;91.97;;;85.67;;
2035;SDS011;23642;42.658;23.350;2022-08-21T08:45:05;91.10;;;85.17;;
2035;SDS011;23642;42.658;23.350;2022-08-21T08:47:35;93.67;;;87.07;;
2035;SDS011;23642;42.658;23.350;2022-08-21T08:50:05;93.03;;;86.60;;
2035;SDS011;23642;42.658;23.350;2022-08-21T08:52:41;91.47;;;85.23;;
2035;SDS011;23642;42.658;23.350;2022-08-21T08:55:14;91.17;;;85.07;;
2035;SDS011;23642;42.658;23.350;2022-08-21T08:57:44;91.63;;;85.47;;
2035;SDS011;23642;42.658;23.350;2022-08-21T09:00:14;91.70;;;85.33;;
2035;SDS011;23642;42.658;23.350;2022-08-21T09:02:44;90.63;;;84.23;;
2035;SDS011;23642;42.658;23.350;2022-08-21T09:05:16;91.90;;;85.73;;
2035;SDS011;23642;42.658;23.350;2022-08-21T09:08:02;93.37;;;86.90;;
2035;SDS011;23642;42.658;23.350;2022-08-21T09:10:45;90.67;;;84.63;;
2035;SDS011;23642;42.658;23.350;2022-08-21T09:13:22;92.33;;;86.33;;
2035;SDS011;23642;42.658;23.350;2022-08-21T09:16:05;94.00;;;87.97;;
2035;SDS011;23642;42.658;23.350;2022-08-21T09:18:42;91.50;;;85.43;;
2035;SDS011;23642;42.658;23.350;2022-08-21T09:21:20;90.20;;;84.33;;
2035;SDS011;23642;42.658;23.350;2022-08-21T09:24:06;91.77;;;85.87;;
2035;SDS011;23642;42.658;23.350;2022-08-21T09:26:51;90.50;;;84.63;;
2035;SDS011;23642;42.658;23.350;2022-08-21T09:29:28;92.23;;;85.80;;
2035;SDS011;23642;42.658;23.350;2022-08-21T09:31:59;90.33;;;83.77;;
2035;SDS011;23642;42.658;23.350;2022-08-21T09:34:27;92.63;;;86.27;;
2035;SDS011;23642;42.658;23.350;2022-08-21T09:36:56;91.90;;;85.90;;
2035;SDS011;23642;42.658;23.350;2022-08-21T09:39:26;92.60;;;86.30;;
2035;SDS011;23642;42.658;23.350;2022-08-21T09:41:57;90.53;;;84.43;;
2035;SDS011;23642;42.658;23.350;2022-08-21T09:44:27;89.23;;;83.40;;
2035;SDS011;23642;42.658;23.350;2022-08-21T09:46:56;92.50;;;86.70;;
2035;SDS011;23642;42.658;23.350;2022-08-21T09:49:26;90.03;;;84.33;;
2035;SDS011;23642;42.658;23.350;2022-08-21T09:51:54;91.83;;;85.83;;
2035;SDS011;23642;42.658;23.350;2022-08-21T09:54:26;94.43;;;87.87;;
2035;SDS011;23642;42.658;23.350;2022-08-21T09:56:59;87.87;;;81.90;;
2035;SDS011;23642;42.658;23.350;2022-08-21T09:59:49;89.90;;;84.10;;
2035;SDS011;23642;42.658;23.350;2022-08-21T10:02:23;91.00;;;84.60;;
2035;SDS011;23642;42.658;23.350;2022-08-21T10:04:53;89.67;;;83.87;;
2035;SDS011;23642;42.658;23.350;2022-08-21T10:07:22;91.10;;;84.93;;
2035;SDS011;23642;42.658;23.350;2022-08-21T10:10:03;91.10;;;85.20;;
2035;SDS011;23642;42.658;23.350;2022-08-21T10:12:38;91.80;;;85.70;;
2035;SDS011;23642;42.658;23.350;2022-08-21T10:15:16;87.50;;;81.70;;
2035;SDS011;23642;42.658;23.350;2022-08-21T10:17:52;89.47;;;82.87;;
2035;SDS011;23642;42.658;23.350;2022-08-21T10:20:29;89.50;;;83.30;;
2035;SDS011;23642;42.658;23.350;2022-08-21T10:23:05;91.50;;;85.20;;
2035;SDS011;23642;42.658;23.350;2022-08-21T10:25:48;90.93;;;84.83;;
2035;SDS011;23642;42.658;23.350;2022-08-21T10:28:21;89.97;;;84.07;;
2035;SDS011;23642;42.658;23.350;2022-08-21T10:31:07;88.47;;;82.77;;
2035;SDS011;23642;42.658;23.350;2022-08-21T10:33:51;90.03;;;84.23;;
2035;SDS011;23642;42.658;23.350;2022-08-21T10:36:49;87.53;;;81.87;;
2035;SDS011;23642;42.658;23.350;2022-08-21T10:39:27;88.33;;;82.73;;
2035;SDS011;23642;42.658;23.350;2022-08-21T10:42:05;90.90;;;84.70;;
2035;SDS011;23642;42.658;23.350;2022-08-21T10:44:49;90.60;;;84.50;;
2035;SDS011;23642;42.658;23.350;2022-08-21T10:47:24;87.53;;;81.40;;
2035;SDS011;23642;42.658;23.350;2022-08-21T10:50:00;88.10;;;82.20;;
2035;SDS011;23642;42.658;23.350;2022-08-21T10:52:38;89.53;;;83.47;;
2035;SDS011;23642;42.658;23.350;2022-08-21T10:55:16;89.87;;;84.03;;
2035;SDS011;23642;42.658;23.350;2022-08-21T10:57:47;91.20;;;85.50;;
2035;SDS011;23642;42.658;23.350;2022-08-21T11:00:19;88.10;;;82.60;;
2035;SDS011;23642;42.658;23.350;2022-08-21T11:02:50;90.47;;;84.43;;
2035;SDS011;23642;42.658;23.350;2022-08-21T11:05:24;88.03;;;82.50;;
2035;SDS011;23642;42.658;23.350;2022-08-21T11:10:42;88.30;;;82.90;;
2035;SDS011;23642;42.658;23.350;2022-08-21T11:13:15;87.73;;;82.03;;
2035;SDS011;23642;42.658;23.350;2022-08-21T11:15:48;88.33;;;82.73;;
2035;SDS011;23642;42.658;23.350;2022-08-21T11:18:23;90.30;;;84.47;;
2035;SDS011;23642;42.658;23.350;2022-08-21T11:21:01;86.10;;;80.50;;
2035;SDS011;23642;42.658;23.350;2022-08-21T11:23:36;88.87;;;83.20;;
2035;SDS011;23642;42.658;23.350;2022-08-21T11:26:10;89.60;;;84.00;;
2035;SDS011;23642;42.658;23.350;2022-08-21T11:28:45;88.57;;;82.77;;
2035;SDS011;23642;42.658;23.350;2022-08-21T11:31:24;91.70;;;85.70;;
2035;SDS011;23642;42.658;23.350;2022-08-21T11:34:05;86.77;;;81.13;;
2035;SDS011;23642;42.658;23.350;2022-08-21T11:36:45;88.77;;;83.17;;
2035;SDS011;23642;42.658;23.350;2022-08-21T11:39:22;91.20;;;85.37;;
2035;SDS011;23642;42.658;23.350;2022-08-21T11:41:57;88.07;;;82.20;;
2035;SDS011;23642;42.658;23.350;2022-08-21T11:44:37;87.30;;;81.90;;
2035;SDS011;23642;42.658;23.350;2022-08-21T11:47:21;87.53;;;81.73;;
2035;SDS011;23642;42.658;23.350;2022-08-21T11:50:06;86.57;;;80.77;;
2035;SDS011;23642;42.658;23.350;2022-08-21T11:52:41;87.60;;;81.57;;
2035;SDS011;23642;42.658;23.350;2022-08-21T11:55:15;87.60;;;82.10;;
2035;SDS011;23642;42.658;23.350;2022-08-21T11:57:48;88.73;;;83.00;;
2035;SDS011;23642;42.658;23.350;2022-08-21T12:00:22;90.70;;;84.27;;
2035;SDS011;23642;42.658;23.350;2022-08-21T12:02:54;90.17;;;84.40;;
2035;SDS011;23642;42.658;23.350;2022-08-21T12:05:39;90.70;;;84.77;;
2035;SDS011;23642;42.658;23.350;2022-08-21T12:08:11;87.30;;;81.60;;
2035;SDS011;23642;42.658;23.350;2022-08-21T12:10:40;87.30;;;81.57;;
2035;SDS011;23642;42.658;23.350;2022-08-21T12:13:21;84.90;;;79.50;;
2035;SDS011;23642;42.658;23.350;2022-08-21T12:15:51;89.97;;;84.10;;
2035;SDS011;23642;42.658;23.350;2022-08-21T12:18:20;87.07;;;81.27;;
2035;SDS011;23642;42.658;23.350;2022-08-21T12:21:03;87.80;;;82.30;;
2035;SDS011;23642;42.658;23.350;2022-08-21T12:23:44;87.83;;;82.27;;
2035;SDS011;23642;42.658;23.350;2022-08-21T12:26:26;85.43;;;80.13;;
2035;SDS011;23642;42.658;23.350;2022-08-21T12:31:51;87.07;;;81.67;;
2035;SDS011;23642;42.658;23.350;2022-08-21T12:34:25;88.50;;;82.70;;
2035;SDS011;23642;42.658;23.350;2022-08-21T12:36:58;86.37;;;80.97;;
2035;SDS011;23642;42.658;23.350;2022-08-21T12:39:29;87.73;;;82.13;;
2035;SDS011;23642;42.658;23.350;2022-08-21T12:42:00;87.73;;;82.33;;
2035;SDS011;23642;42.658;23.350;2022-08-21T12:44:34;85.73;;;80.13;;
2035;SDS011;23642;42.658;23.350;2022-08-21T12:47:11;84.60;;;79.40;;
2035;SDS011;23642;42.658;23.350;2022-08-21T12:49:45;86.40;;;80.60;;
2035;SDS011;23642;42.658;23.350;2022-08-21T12:52:29;86.30;;;81.00;;
2035;SDS011;23642;42.658;23.350;2022-08-21T12:54:59;86.13;;;80.83;;
2035;SDS011;23642;42.658;23.350;2022-08-21T12:57:29;85.53;;;80.27;;
2035;SDS011;23642;42.658;23.350;2022-08-21T12:59:57;87.60;;;82.10;;
2035;SDS011;23642;42.658;23.350;2022-08-21T13:02:28;86.73;;;81.03;;
2035;SDS011;23642;42.658;23.350;2022-08-21T13:05:02;87.90;;;82.30;;
2035;SDS011;23642;42.658;23.350;2022-08-21T13:07:31;85.80;;;80.10;;
2035;SDS011;23642;42.658;23.350;2022-08-21T13:10:04;84.50;;;78.93;;
2035;SDS011;23642;42.658;23.350;2022-08-21T13:12:40;86.50;;;80.83;;
2035;SDS011;23642;42.658;23.350;2022-08-21T13:15:10;85.07;;;79.30;;
2035;SDS011;23642;42.658;23.350;2022-08-21T13:17:43;86.70;;;81.00;;
2035;SDS011;23642;42.658;23.350;2022-08-21T13:20:19;88.10;;;82.50;;
2035;SDS011;23642;42.658;23.350;2022-08-21T13:22:49;87.00;;;81.50;;
2035;SDS011;23642;42.658;23.350;2022-08-21T13:25:18;88.50;;;82.50;;
2035;SDS011;23642;42.658;23.350;2022-08-21T13:27:57;85.87;;;80.20;;
2035;SDS011;23642;42.658;23.350;2022-08-21T13:30:26;86.37;;;80.67;;
2035;SDS011;23642;42.658;23.350;2022-08-21T13:32:57;86.60;;;80.60;;
2035;SDS011;23642;42.658;23.350;2022-08-21T13:35:28;87.60;;;81.63;;
2035;SDS011;23642;42.658;23.350;2022-08-21T13:37:58;83.17;;;77.87;;
2035;SDS011;23642;42.658;23.350;2022-08-21T13:40:28;86.57;;;81.07;;
2035;SDS011;23642;42.658;23.350;2022-08-21T13:42:58;85.80;;;80.40;;
2035;SDS011;23642;42.658;23.350;2022-08-21T13:45:27;86.50;;;81.00;;
2035;SDS011;23642;42.658;23.350;2022-08-21T13:48:00;87.27;;;81.80;;
2035;SDS011;23642;42.658;23.350;2022-08-21T13:50:28;85.80;;;80.40;;
2035;SDS011;23642;42.658;23.350;2022-08-21T13:52:59;86.57;;;80.77;;
2035;SDS011;23642;42.658;23.350;2022-08-21T13:55:35;85.77;;;80.37;;
2035;SDS011;23642;42.658;23.350;2022-08-21T13:58:11;88.83;;;83.10;;
2035;SDS011;23642;42.658;23.350;2022-08-21T14:00:44;88.00;;;82.40;;
2035;SDS011;23642;42.658;23.350;2022-08-21T14:03:23;85.90;;;80.30;;
2035;SDS011;23642;42.658;23.350;2022-08-21T14:05:54;88.17;;;82.60;;
2035;SDS011;23642;42.658;23.350;2022-08-21T14:08:24;88.30;;;82.60;;
2035;SDS011;23642;42.658;23.350;2022-08-21T14:10:57;87.10;;;81.50;;
2035;SDS011;23642;42.658;23.350;2022-08-21T14:13:36;89.90;;;84.27;;
2035;SDS011;23642;42.658;23.350;2022-08-21T14:16:12;87.40;;;82.00;;
2035;SDS011;23642;42.658;23.350;2022-08-21T14:18:47;86.00;;;80.40;;
2035;SDS011;23642;42.658;23.350;2022-08-21T14:21:30;89.17;;;83.67;;
2035;SDS011;23642;42.658;23.350;2022-08-21T14:24:00;89.33;;;82.90;;
2035;SDS011;23642;42.658;23.350;2022-08-21T14:26:34;89.07;;;83.30;;
2035;SDS011;23642;42.658;23.350;2022-08-21T14:29:04;85.83;;;80.10;;
2035;SDS011;23642;42.658;23.350;2022-08-21T14:31:35;90.43;;;84.70;;
2035;SDS011;23642;42.658;23.350;2022-08-21T14:34:03;88.10;;;82.50;;
2035;SDS011;23642;42.658;23.350;2022-08-21T14:36:30;86.90;;;81.20;;
2035;SDS011;23642;42.658;23.350;2022-08-21T14:38:57;89.90;;;83.30;;
2035;SDS011;23642;42.658;23.350;2022-08-21T14:41:25;88.20;;;82.00;;
2035;SDS011;23642;42.658;23.350;2022-08-21T14:43:55;89.57;;;84.00;;
2035;SDS011;23642;42.658;23.350;2022-08-21T14:46:24;85.47;;;80.17;;